Time;durP1;ratioP1;P1;durP2;ratioP2;P2;SDS_P1;SDS_P2;PMS_P1;PMS_P2;Temp;Humidity;BMP_temperature;BMP_pressure;BME280_temperature;BME280_humidity;BME280_pressure;Samples;Min_cycle;Max_cycle;Signal;HPM_P1;HPM_P2
2022/10/07 00:01:05;;;;;;;17.98;15.75;;;14.80;99.90;;;;;;5035149;28;20114;-64
2022/10/07 00:03:30;;;;;;;13.15;11.75;;;14.70;99.90;;;;;;5035120;28;20021;-61
2022/10/07 00:06:06;;;;;;;12.68;10.95;;;14.70;99.90;;;;;;5035047;28;20026;-63
2022/10/07 00:08:34;;;;;;;10.30;8.98;;;14.60;99.90;;;;;;5035035;28;20033;-62
2022/10/07 00:11:11;;;;;;;10.80;9.70;;;14.60;99.90;;;;;;5035053;28;20495;-61
2022/10/07 00:13:39;;;;;;;9.63;8.05;;;14.60;99.90;;;;;;5034871;28;20026;-63
2022/10/07 00:16:18;;;;;;;11.77;9.73;;;14.60;99.90;;;;;;5034944;28;20422;-61
2022/10/07 00:18:45;;;;;;;8.55;7.65;;;14.60;99.90;;;;;;5034927;28;20069;-60
2022/10/07 00:21:13;;;;;;;9.40;8.13;;;14.60;99.90;;;;;;5034610;28;20548;-61
2022/10/07 00:23:41;;;;;;;9.05;7.30;;;14.60;99.90;;;;;;5034793;28;20104;-62
2022/10/07 00:26:09;;;;;;;8.55;7.75;;;14.60;99.90;;;;;;5034852;28;20112;-61
2022/10/07 00:28:35;;;;;;;8.32;7.50;;;14.60;99.90;;;;;;5034904;28;20037;-60
2022/10/07 00:31:16;;;;;;;8.77;7.93;;;14.60;99.90;;;;;;5034583;28;20357;-63
2022/10/07 00:33:42;;;;;;;8.35;7.55;;;14.60;99.90;;;;;;5034521;28;20029;-59
2022/10/07 00:36:10;;;;;;;10.95;8.60;;;14.50;99.90;;;;;;5034375;28;20021;-61
2022/10/07 00:38:36;;;;;;;7.97;7.18;;;14.60;99.90;;;;;;5034289;28;20036;-60
2022/10/07 00:41:02;;;;;;;8.50;7.18;;;14.60;99.90;;;;;;5034292;28;20029;-61
2022/10/07 00:43:30;;;;;;;8.20;7.35;;;14.60;99.90;;;;;;5033758;28;20025;-60
2022/10/07 00:46:11;;;;;;;8.20;7.40;;;14.60;99.90;;;;;;5034529;28;20096;-62
2022/10/07 00:48:38;;;;;;;8.63;7.70;;;14.60;99.90;;;;;;5034535;28;20112;-62
2022/10/07 00:51:08;;;;;;;12.13;9.57;;;14.60;99.90;;;;;;5034042;28;20075;-60
2022/10/07 00:53:37;;;;;;;13.70;10.32;;;14.60;99.90;;;;;;5034041;28;20089;-60
2022/10/07 00:56:04;;;;;;;9.80;8.27;;;14.50;99.90;;;;;;5034101;28;20048;-62
2022/10/07 00:58:33;;;;;;;11.00;9.77;;;14.50;99.90;;;;;;5033912;28;20561;-61
2022/10/07 01:00:58;;;;;;;10.30;9.20;;;14.50;99.90;;;;;;5033814;28;20045;-61
2022/10/07 01:03:24;;;;;;;11.13;9.93;;;14.50;99.90;;;;;;5034036;28;20021;-62
2022/10/07 01:05:50;;;;;;;10.25;8.95;;;14.40;99.90;;;;;;5034043;28;20030;-60
2022/10/07 01:08:18;;;;;;;10.38;8.85;;;14.40;99.90;;;;;;5033785;28;20021;-61
2022/10/07 01:10:53;;;;;;;9.88;8.63;;;14.40;99.90;;;;;;5033913;28;20017;-63
2022/10/07 01:13:38;;;;;;;10.20;9.00;;;14.40;99.90;;;;;;5033681;28;20017;-63
2022/10/07 01:16:15;;;;;;;8.60;7.55;;;14.40;99.90;;;;;;5033701;28;20021;-61
2022/10/07 01:19:26;;;;;;;8.07;7.28;;;14.40;99.90;;;;;;5033494;28;20035;-59
2022/10/07 01:22:24;;;;;;;7.80;6.93;;;14.20;99.90;;;;;;5010261;28;20120;-61
2022/10/07 01:25:31;;;;;;;7.32;6.63;;;14.20;99.90;;;;;;5001454;28;20100;-62
2022/10/07 01:28:23;;;;;;;7.93;7.03;;;14.20;99.90;;;;;;4953447;29;20032;-61
2022/10/07 01:30:53;;;;;;;5.72;5.22;;;14.20;99.90;;;;;;5031201;28;20029;-63
2022/10/07 01:33:26;;;;;;;8.07;6.07;;;14.20;99.90;;;;;;5033477;28;20079;-62
2022/10/07 01:35:54;;;;;;;7.13;6.43;;;14.20;99.90;;;;;;5033433;28;20108;-61
2022/10/07 01:38:25;;;;;;;7.43;6.70;;;14.20;99.90;;;;;;5033431;28;20037;-59
2022/10/07 01:41:17;;;;;;;9.52;8.52;;;14.20;99.90;;;;;;5033303;28;20025;-60
2022/10/07 01:43:45;;;;;;;8.18;7.30;;;14.20;99.90;;;;;;5033624;28;20028;-60
2022/10/07 01:46:21;;;;;;;8.75;7.78;;;14.20;99.90;;;;;;5033544;28;20021;-63
2022/10/07 01:48:47;;;;;;;7.97;7.18;;;14.20;99.90;;;;;;5033388;28;20037;-60
2022/10/07 01:51:16;;;;;;;7.57;6.88;;;14.20;99.90;;;;;;5033534;28;20022;-60
2022/10/07 01:54:01;;;;;;;7.18;6.47;;;14.20;99.90;;;;;;5032981;28;20032;-62
2022/10/07 01:56:48;;;;;;;9.25;8.07;;;14.20;99.90;;;;;;5032958;28;20075;-61
2022/10/07 01:59:26;;;;;;;8.55;7.75;;;14.20;99.90;;;;;;5033106;28;20459;-61
2022/10/07 02:02:16;;;;;;;8.77;7.88;;;14.20;99.90;;;;;;5032931;28;20057;-62
2022/10/07 02:05:00;;;;;;;9.40;7.90;;;14.20;99.90;;;;;;5032932;28;20502;-60
2022/10/07 02:07:47;;;;;;;10.02;8.65;;;14.20;99.90;;;;;;5033141;28;20101;-64
2022/10/07 02:10:40;;;;;;;8.48;7.38;;;14.10;99.90;;;;;;5033258;28;20387;-61
2022/10/07 02:13:18;;;;;;;9.48;7.82;;;14.10;99.90;;;;;;5033327;28;20164;-61
2022/10/07 02:15:55;;;;;;;7.03;6.32;;;14.10;99.90;;;;;;5033331;28;20052;-62
2022/10/07 02:18:22;;;;;;;7.65;6.95;;;14.10;99.90;;;;;;5033034;28;20391;-62
2022/10/07 02:20:50;;;;;;;7.07;6.38;;;14.10;99.90;;;;;;5032993;28;20487;-61
2022/10/07 02:23:19;;;;;;;7.82;7.13;;;14.10;99.90;;;;;;5032940;28;20028;-62
2022/10/07 02:25:47;;;;;;;7.88;7.05;;;14.10;99.90;;;;;;5033002;28;20383;-62
2022/10/07 02:28:17;;;;;;;7.18;6.47;;;14.00;99.90;;;;;;5032833;28;20049;-61
2022/10/07 02:30:47;;;;;;;6.28;5.68;;;14.00;99.90;;;;;;5033190;28;20075;-63
2022/10/07 02:33:14;;;;;;;6.03;5.45;;;14.00;99.90;;;;;;5032712;28;20014;-61
2022/10/07 02:35:46;;;;;;;5.97;5.43;;;14.00;99.90;;;;;;5032788;28;20021;-61
2022/10/07 02:38:15;;;;;;;7.80;6.72;;;14.10;99.90;;;;;;5033075;28;20041;-63
2022/10/07 02:41:08;;;;;;;5.72;5.22;;;14.00;99.90;;;;;;5032712;28;20025;-61
2022/10/07 02:43:47;;;;;;;6.32;5.68;;;14.00;99.90;;;;;;5032851;28;20021;-62
2022/10/07 02:46:22;;;;;;;5.00;4.55;;;14.00;99.90;;;;;;5032508;28;20079;-63
2022/10/07 02:48:56;;;;;;;5.28;4.78;;;13.90;99.90;;;;;;5032972;28;20033;-61
2022/10/07 02:51:30;;;;;;;5.00;4.40;;;13.90;99.90;;;;;;5032933;28;20029;-62
2022/10/07 02:53:57;;;;;;;5.47;4.97;;;14.00;99.90;;;;;;5032972;28;20068;-60
2022/10/07 02:56:24;;;;;;;6.22;5.10;;;14.00;99.90;;;;;;5032706;28;20018;-63
2022/10/07 02:58:51;;;;;;;7.88;7.07;;;14.00;99.90;;;;;;5032378;28;20029;-60
2022/10/07 03:01:21;;;;;;;8.25;7.15;;;13.90;99.90;;;;;;5032307;28;20064;-61
2022/10/07 03:03:47;;;;;;;9.45;7.82;;;13.80;99.90;;;;;;5032664;28;20025;-63
2022/10/07 03:06:14;;;;;;;8.20;7.30;;;13.80;99.90;;;;;;5033944;28;20423;-61
2022/10/07 03:08:41;;;;;;;9.85;8.43;;;13.80;99.90;;;;;;5036230;28;20025;-62
2022/10/07 03:11:07;;;;;;;8.23;7.43;;;13.70;99.90;;;;;;5036134;28;20104;-59
2022/10/07 03:13:34;;;;;;;7.43;6.63;;;13.70;99.90;;;;;;5035987;28;20060;-61
2022/10/07 03:15:59;;;;;;;7.95;7.15;;;13.70;99.90;;;;;;5035979;28;20025;-62
2022/10/07 03:18:27;;;;;;;7.38;6.68;;;13.80;99.90;;;;;;5035872;28;20107;-63
2022/10/07 03:20:58;;;;;;;6.97;6.28;;;13.70;99.90;;;;;;5035857;28;20476;-63
2022/10/07 03:23:26;;;;;;;6.90;5.63;;;13.80;99.90;;;;;;5035875;28;20476;-62
2022/10/07 03:25:53;;;;;;;6.07;5.45;;;13.70;99.90;;;;;;5035851;28;20070;-60
2022/10/07 03:28:21;;;;;;;5.93;5.43;;;13.70;99.90;;;;;;5035720;28;20025;-60
2022/10/07 03:30:47;;;;;;;5.30;4.68;;;13.70;99.90;;;;;;5035624;28;20047;-63
2022/10/07 03:33:14;;;;;;;5.13;4.55;;;13.70;99.90;;;;;;5035657;28;20553;-62
2022/10/07 03:35:39;;;;;;;5.57;4.60;;;13.70;99.90;;;;;;5035594;28;20025;-64
2022/10/07 03:38:07;;;;;;;6.20;5.35;;;13.60;99.90;;;;;;5035780;28;20044;-60
2022/10/07 03:40:33;;;;;;;4.40;3.80;;;13.60;99.90;;;;;;5035612;28;20460;-59
2022/10/07 03:42:59;;;;;;;4.72;4.15;;;13.60;99.90;;;;;;5035719;28;20383;-62
2022/10/07 03:45:25;;;;;;;4.57;4.18;;;13.50;99.90;;;;;;5035406;28;20098;-61
2022/10/07 03:47:51;;;;;;;6.07;5.13;;;13.50;99.90;;;;;;5035475;28;20637;-62
2022/10/07 03:50:17;;;;;;;5.95;4.70;;;13.50;99.90;;;;;;5035324;28;20029;-61
2022/10/07 03:52:44;;;;;;;4.95;4.32;;;13.50;99.90;;;;;;5035591;28;20053;-62
2022/10/07 03:55:10;;;;;;;5.00;4.40;;;13.50;99.90;;;;;;5035269;28;20018;-62
2022/10/07 03:57:52;;;;;;;5.15;4.50;;;13.50;99.90;;;;;;5035470;28;20037;-63
2022/10/07 04:00:22;;;;;;;4.88;4.38;;;13.50;99.90;;;;;;5034849;28;20029;-61
2022/10/07 04:02:49;;;;;;;5.72;4.50;;;13.40;99.90;;;;;;5035080;28;20037;-60
2022/10/07 04:05:16;;;;;;;6.70;5.30;;;13.30;99.90;;;;;;5035169;28;20468;-60
2022/10/07 04:07:47;;;;;;;7.35;5.25;;;13.30;99.90;;;;;;5035313;28;20048;-62
2022/10/07 04:10:15;;;;;;;9.23;8.05;;;13.30;99.90;;;;;;5035161;28;20022;-63
2022/10/07 04:12:42;;;;;;;14.38;10.93;;;13.30;99.90;;;;;;5034913;28;20030;-62
2022/10/07 04:15:12;;;;;;;13.32;11.88;;;13.20;99.90;;;;;;5034791;28;20025;-62
2022/10/07 04:17:39;;;;;;;25.98;20.33;;;13.10;99.90;;;;;;5033770;28;20545;-63
2022/10/07 04:20:05;;;;;;;22.23;19.52;;;13.10;99.90;;;;;;5035090;28;20079;-63
2022/10/07 04:22:31;;;;;;;22.52;19.80;;;13.10;99.90;;;;;;5035163;28;20056;-60
2022/10/07 04:27:41;;;;;;;20.98;18.77;;;13.00;99.90;;;;;;5034621;28;20098;-62
2022/10/07 04:30:08;;;;;;;24.17;21.10;;;13.10;99.90;;;;;;5034507;28;20025;-61
2022/10/07 04:32:34;;;;;;;27.15;22.95;;;13.10;99.90;;;;;;5034590;28;20476;-63
2022/10/07 04:35:00;;;;;;;42.65;30.35;;;13.10;99.90;;;;;;5034567;28;20151;-60
2022/10/07 04:37:27;;;;;;;50.15;31.00;;;13.00;99.90;;;;;;5034647;28;20112;-63
2022/10/07 04:39:52;;;;;;;62.65;36.20;;;12.90;99.90;;;;;;5034564;28;20025;-62
2022/10/07 04:45:02;;;;;;;47.55;26.55;;;12.80;99.90;;;;;;5034494;28;20113;-63
2022/10/07 04:47:28;;;;;;;38.33;23.60;;;12.80;99.90;;;;;;5034331;28;20110;-62
2022/10/07 04:49:54;;;;;;;41.53;24.05;;;12.80;99.90;;;;;;5034312;28;20424;-62
2022/10/07 04:52:19;;;;;;;42.47;26.52;;;12.80;99.90;;;;;;5034100;28;20101;-63
2022/10/07 04:54:45;;;;;;;59.83;35.83;;;12.80;99.90;;;;;;5032258;28;20105;-62
2022/10/07 04:57:12;;;;;;;53.35;34.92;;;12.70;99.90;;;;;;5033579;28;20527;-61
2022/10/07 04:59:38;;;;;;;59.13;37.65;;;12.70;99.90;;;;;;5033799;28;20017;-61
2022/10/07 05:02:04;;;;;;;36.13;26.05;;;12.60;99.90;;;;;;5033736;28;20152;-62
2022/10/07 05:04:30;;;;;;;42.53;27.67;;;12.60;99.90;;;;;;5033358;28;20128;-59
2022/10/07 05:06:55;;;;;;;41.42;26.50;;;12.50;99.90;;;;;;5033678;28;20025;-64
2022/10/07 05:09:21;;;;;;;38.90;26.10;;;12.50;99.90;;;;;;5033641;28;20025;-65
2022/10/07 05:11:47;;;;;;;37.65;25.40;;;12.50;99.90;;;;;;5033687;28;20027;-63
2022/10/07 05:14:13;;;;;;;33.28;22.83;;;12.60;99.90;;;;;;5033754;28;20464;-63
2022/10/07 05:16:40;;;;;;;28.42;19.48;;;12.70;99.90;;;;;;5033724;28;20032;-62
2022/10/07 05:19:05;;;;;;;22.90;17.55;;;12.80;99.90;;;;;;5033629;28;20040;-63
2022/10/07 05:21:32;;;;;;;21.52;15.98;;;12.90;99.90;;;;;;5033634;28;20029;-62
2022/10/07 05:23:58;;;;;;;16.77;14.05;;;13.00;99.90;;;;;;5033496;28;20025;-63
2022/10/07 05:26:23;;;;;;;20.48;15.90;;;13.10;99.90;;;;;;5016478;28;20025;-63
2022/10/07 05:28:49;;;;;;;22.92;15.90;;;13.10;99.90;;;;;;5032147;28;20099;-64
2022/10/07 05:31:15;;;;;;;24.95;20.05;;;13.10;99.90;;;;;;5032701;28;20025;-61
2022/10/07 05:33:41;;;;;;;31.38;24.75;;;13.20;99.90;;;;;;5032190;28;20026;-63
2022/10/07 05:36:10;;;;;;;31.25;23.00;;;13.20;99.90;;;;;;5032422;28;20076;-64
2022/10/07 05:38:36;;;;;;;27.77;21.48;;;13.30;99.90;;;;;;5032751;28;20038;-61
2022/10/07 05:41:04;;;;;;;24.38;19.52;;;13.30;99.90;;;;;;5032877;28;20112;-63
2022/10/07 05:43:32;;;;;;;19.65;16.63;;;13.50;99.90;;;;;;5033307;28;20075;-67
2022/10/07 05:46:06;;;;;;;17.88;14.85;;;13.60;99.90;;;;;;5033150;28;20484;-64
2022/10/07 05:48:33;;;;;;;15.88;13.38;;;13.70;99.90;;;;;;5033309;28;20091;-66
2022/10/07 05:50:59;;;;;;;15.13;12.90;;;13.90;99.90;;;;;;5033218;28;20017;-66
2022/10/07 05:53:25;;;;;;;13.98;11.63;;;14.00;99.90;;;;;;5033064;28;20024;-64
2022/10/07 05:55:52;;;;;;;11.30;10.07;;;14.10;99.90;;;;;;5032890;28;20025;-66
2022/10/07 05:58:18;;;;;;;11.88;10.63;;;14.30;99.90;;;;;;5032818;28;20515;-64
2022/10/07 06:00:55;;;;;;;10.55;9.43;;;14.30;99.90;;;;;;5032768;28;20050;-63
2022/10/07 06:03:22;;;;;;;9.27;8.38;;;14.40;99.90;;;;;;5031909;28;20510;-65
2022/10/07 06:05:51;;;;;;;10.73;9.10;;;14.50;99.90;;;;;;5030163;28;20024;-63
2022/10/07 06:08:19;;;;;;;10.13;9.02;;;14.70;99.90;;;;;;5022948;28;20057;-62
2022/10/07 06:13:30;;;;;;;9.80;8.80;;;14.90;99.90;;;;;;5024616;28;20179;-61
2022/10/07 06:16:07;;;;;;;11.70;9.65;;;15.10;99.90;;;;;;5032176;28;20114;-66
2022/10/07 06:18:37;;;;;;;8.93;8.00;;;15.30;99.90;;;;;;5030509;28;20030;-62
2022/10/07 06:21:03;;;;;;;8.88;7.97;;;15.60;99.90;;;;;;5032659;28;20022;-63
2022/10/07 06:23:30;;;;;;;9.05;8.00;;;15.80;99.90;;;;;;5032856;28;20037;-64
2022/10/07 06:26:01;;;;;;;8.65;7.63;;;16.60;99.90;;;;;;5020353;28;20048;-61
2022/10/07 06:28:32;;;;;;;8.95;7.78;;;17.70;99.90;;;;;;5022628;28;20032;-68
2022/10/07 06:30:58;;;;;;;7.60;6.85;;;18.60;99.90;;;;;;5022644;28;20018;-65
2022/10/07 06:33:23;;;;;;;6.53;5.88;;;19.70;96.10;;;;;;5019188;28;20032;-63
2022/10/07 06:35:49;;;;;;;6.93;6.22;;;20.60;90.10;;;;;;5016550;28;20157;-66
2022/10/07 06:38:15;;;;;;;7.50;6.80;;;21.50;78.50;;;;;;5023708;28;20029;-63
2022/10/07 06:40:42;;;;;;;7.40;6.60;;;21.80;75.10;;;;;;5028504;28;20033;-64
2022/10/07 06:43:08;;;;;;;5.97;5.35;;;22.50;71.60;;;;;;5027315;28;20131;-63
2022/10/07 06:45:33;;;;;;;5.75;5.25;;;23.60;67.60;;;;;;5032852;28;20096;-64
2022/10/07 06:48:00;;;;;;;6.28;5.68;;;24.30;62.80;;;;;;5033979;28;20029;-62
2022/10/07 06:50:25;;;;;;;7.05;5.70;;;24.40;61.90;;;;;;5028765;28;20036;-65
2022/10/07 06:52:51;;;;;;;5.20;4.80;;;24.50;60.70;;;;;;5026537;28;20021;-63
2022/10/07 06:55:17;;;;;;;5.25;4.80;;;24.50;59.30;;;;;;5034082;28;20052;-62
2022/10/07 06:57:44;;;;;;;5.47;5.07;;;24.60;59.20;;;;;;5035155;28;20442;-63
2022/10/07 07:00:10;;;;;;;5.78;5.28;;;24.20;59.60;;;;;;5026351;28;20033;-61
2022/10/07 07:02:36;;;;;;;8.48;6.85;;;23.90;60.10;;;;;;5031491;28;20054;-61
2022/10/07 07:05:06;;;;;;;7.18;6.50;;;23.70;59.20;;;;;;5029674;28;20032;-59
2022/10/07 07:07:32;;;;;;;6.63;6.03;;;23.50;59.80;;;;;;5031649;28;20056;-63
2022/10/07 07:09:58;;;;;;;8.05;7.35;;;23.60;60.10;;;;;;5031504;28;20483;-62
2022/10/07 07:12:24;;;;;;;8.02;7.22;;;23.70;59.10;;;;;;5031752;28;20499;-61
2022/10/07 07:14:50;;;;;;;7.65;6.95;;;23.90;60.30;;;;;;5027917;28;20033;-61
2022/10/07 07:17:17;;;;;;;7.57;6.87;;;24.70;59.50;;;;;;5034031;28;20026;-64
2022/10/07 07:19:43;;;;;;;7.70;6.90;;;25.20;58.20;;;;;;5032221;28;20552;-63
2022/10/07 07:22:09;;;;;;;9.13;8.07;;;25.70;56.10;;;;;;5023945;28;20057;-63
2022/10/07 07:24:35;;;;;;;9.40;8.60;;;25.80;55.80;;;;;;5023153;28;20407;-68
2022/10/07 07:27:01;;;;;;;8.88;8.05;;;25.90;55.00;;;;;;5004984;28;20034;-63
2022/10/07 07:29:27;;;;;;;8.68;7.88;;;26.10;55.30;;;;;;5028651;28;20028;-64
2022/10/07 07:31:53;;;;;;;11.32;10.23;;;25.80;55.70;;;;;;5027455;28;20476;-64
2022/10/07 07:34:19;;;;;;;10.48;9.48;;;26.00;54.10;;;;;;5029517;28;20086;-65
2022/10/07 07:36:47;;;;;;;10.57;9.57;;;26.00;54.80;;;;;;5031534;28;20475;-62
2022/10/07 07:39:16;;;;;;;10.02;9.05;;;25.90;54.70;;;;;;4999684;28;20034;-66
2022/10/07 07:41:45;;;;;;;11.40;9.68;;;26.20;54.60;;;;;;5034600;28;20033;-63
2022/10/07 07:44:13;;;;;;;10.57;9.48;;;26.50;53.60;;;;;;5034248;28;20041;-63
2022/10/07 07:46:42;;;;;;;8.57;7.68;;;26.00;53.50;;;;;;5034186;28;20392;-62
2022/10/07 07:49:09;;;;;;;8.80;8.00;;;25.40;55.20;;;;;;5016084;28;20034;-64
2022/10/07 07:51:36;;;;;;;9.20;8.38;;;25.00;55.60;;;;;;5008130;28;20034;-63
2022/10/07 07:54:02;;;;;;;7.90;7.10;;;25.00;56.00;;;;;;5024625;28;20034;-62
2022/10/07 07:56:28;;;;;;;7.65;6.95;;;25.00;56.50;;;;;;5021975;28;20044;-62
2022/10/07 07:58:54;;;;;;;8.15;7.35;;;25.30;57.00;;;;;;5015787;28;20042;-65
2022/10/07 08:01:20;;;;;;;7.18;6.43;;;25.60;55.20;;;;;;5011705;28;20050;-65
2022/10/07 08:03:47;;;;;;;7.97;7.28;;;25.60;54.40;;;;;;5010728;28;20033;-65
2022/10/07 08:06:16;;;;;;;7.88;6.55;;;25.40;54.40;;;;;;4984903;28;20129;-64
2022/10/07 08:12:16;;;;;;;8.70;7.78;;;25.20;54.70;;;;;;5031475;28;20375;-62
2022/10/07 08:14:42;;;;;;;6.43;5.93;;;25.00;55.30;;;;;;5023296;28;20034;-64
2022/10/07 08:17:08;;;;;;;9.48;8.57;;;26.20;55.50;;;;;;5012547;28;20120;-65
2022/10/07 08:19:33;;;;;;;7.93;7.10;;;27.10;52.40;;;;;;5013640;28;20026;-67
2022/10/07 08:21:59;;;;;;;7.82;6.70;;;27.60;53.50;;;;;;5013033;28;20472;-63
2022/10/07 08:24:26;;;;;;;9.50;8.45;;;28.10;51.30;;;;;;5011759;28;20053;-61
2022/10/07 08:26:52;;;;;;;7.72;7.03;;;28.50;51.10;;;;;;5012564;28;20021;-63
2022/10/07 08:29:19;;;;;;;11.15;7.60;;;28.20;50.50;;;;;;5013213;28;20113;-65
2022/10/07 08:31:46;;;;;;;6.80;6.10;;;27.10;50.70;;;;;;5011863;28;20034;-64
2022/10/07 08:34:12;;;;;;;8.85;8.05;;;26.40;52.60;;;;;;5012192;28;20030;-66
2022/10/07 08:36:38;;;;;;;8.38;7.35;;;25.50;53.60;;;;;;5013405;28;20384;-60
2022/10/07 08:39:05;;;;;;;9.88;8.48;;;25.00;54.40;;;;;;5003757;28;20045;-61
2022/10/07 08:41:37;;;;;;;8.63;7.82;;;24.50;58.00;;;;;;5000937;28;20535;-65
2022/10/07 08:44:46;;;;;;;7.22;6.63;;;24.10;57.00;;;;;;5009981;28;20034;-65
2022/10/07 08:47:37;;;;;;;7.50;6.70;;;23.90;57.20;;;;;;4990430;28;20049;-66
2022/10/07 08:50:22;;;;;;;7.20;6.50;;;23.80;58.30;;;;;;5002340;28;20076;-63
2022/10/07 08:52:55;;;;;;;6.95;6.35;;;23.70;60.00;;;;;;4987897;28;20034;-66
2022/10/07 08:55:39;;;;;;;7.28;6.68;;;23.70;60.30;;;;;;4997326;28;20034;-65
2022/10/07 08:58:14;;;;;;;7.43;6.82;;;23.70;58.30;;;;;;4997166;28;20345;-63
2022/10/07 09:01:03;;;;;;;7.78;7.07;;;23.70;60.30;;;;;;4994557;28;20176;-63
2022/10/07 09:04:14;;;;;;;7.88;7.15;;;23.60;58.70;;;;;;5018337;28;20021;-63
2022/10/07 09:07:09;;;;;;;8.00;7.10;;;23.20;59.20;;;;;;5027512;28;20076;-61
2022/10/07 09:09:39;;;;;;;8.05;6.43;;;23.20;60.40;;;;;;4992666;28;20037;-60
2022/10/07 09:12:16;;;;;;;10.02;7.15;;;23.20;62.00;;;;;;5026017;28;20036;-64
2022/10/07 09:14:45;;;;;;;7.68;6.85;;;23.20;62.50;;;;;;5010093;28;20056;-62
2022/10/07 09:17:33;;;;;;;8.00;6.32;;;23.10;61.30;;;;;;5024544;28;20108;-62
2022/10/07 09:20:22;;;;;;;6.82;6.00;;;23.10;61.40;;;;;;5025228;28;20384;-61
2022/10/07 09:22:52;;;;;;;6.97;6.38;;;23.50;67.30;;;;;;5028224;28;20384;-61
2022/10/07 09:25:26;;;;;;;5.10;4.57;;;23.90;61.90;;;;;;5018637;28;20029;-60
2022/10/07 09:27:53;;;;;;;5.72;4.82;;;24.30;60.20;;;;;;5012998;28;20026;-62
2022/10/07 09:30:23;;;;;;;5.65;5.05;;;24.80;57.20;;;;;;5013646;28;20030;-63
2022/10/07 09:32:54;;;;;;;4.68;4.25;;;24.90;56.10;;;;;;5029774;28;20113;-64
2022/10/07 09:35:25;;;;;;;4.20;3.90;;;25.30;57.40;;;;;;5029723;28;20027;-63
2022/10/07 09:38:08;;;;;;;4.40;4.00;;;25.80;56.90;;;;;;5029862;28;20499;-63
2022/10/07 09:43:26;;;;;;;3.75;3.45;;;26.00;52.40;;;;;;5022573;28;20095;-65
2022/10/07 09:45:54;;;;;;;4.15;3.85;;;25.90;54.20;;;;;;5023668;28;20168;-64
2022/10/07 09:48:24;;;;;;;3.65;3.35;;;26.10;56.30;;;;;;5028744;28;20025;-68
2022/10/07 09:50:50;;;;;;;4.18;3.80;;;26.30;56.50;;;;;;5026749;28;20045;-65
2022/10/07 09:53:22;;;;;;;3.88;3.50;;;26.40;54.50;;;;;;5027875;28;20025;-65
2022/10/07 09:55:49;;;;;;;3.60;3.30;;;26.50;52.90;;;;;;5027503;28;20079;-63
2022/10/07 09:58:17;;;;;;;3.75;3.45;;;26.50;54.00;;;;;;5006218;28;20122;-63
2022/10/07 10:00:48;;;;;;;3.45;3.00;;;26.50;54.30;;;;;;5028336;28;20195;-65
2022/10/07 10:03:15;;;;;;;3.03;2.80;;;26.40;52.90;;;;;;5030111;28;20030;-65
2022/10/07 10:06:00;;;;;;;2.90;2.70;;;26.30;53.90;;;;;;5030942;28;20017;-63
2022/10/07 10:08:33;;;;;;;3.17;2.97;;;26.10;53.00;;;;;;5012065;28;20028;-62
2022/10/07 10:11:02;;;;;;;3.08;2.88;;;26.10;53.00;;;;;;5027434;28;20146;-66
2022/10/07 10:13:31;;;;;;;2.80;2.60;;;26.30;54.90;;;;;;5024952;28;20032;-60
2022/10/07 10:15:58;;;;;;;3.22;2.92;;;26.30;54.50;;;;;;5023382;28;20030;-66
2022/10/07 10:19:16;;;;;;;3.63;3.33;;;26.40;54.20;;;;;;5025308;28;20476;-60
2022/10/07 10:21:42;;;;;;;3.88;3.58;;;26.40;53.70;;;;;;5032388;28;20029;-64
2022/10/07 10:24:14;;;;;;;3.50;3.20;;;26.30;54.40;;;;;;5035330;28;20067;-64
2022/10/07 10:27:02;;;;;;;3.58;3.28;;;26.20;53.90;;;;;;5022049;28;20080;-66
2022/10/07 10:29:38;;;;;;;3.47;3.28;;;26.30;53.80;;;;;;5018377;28;20376;-63
2022/10/07 10:32:20;;;;;;;3.85;3.55;;;26.30;54.80;;;;;;5028647;28;20488;-65
2022/10/07 10:35:21;;;;;;;3.35;3.10;;;26.50;57.60;;;;;;5032532;28;20021;-59
2022/10/07 10:38:14;;;;;;;3.40;3.10;;;26.60;57.10;;;;;;4947876;28;20492;-62
2022/10/07 10:40:45;;;;;;;3.97;3.58;;;26.60;55.40;;;;;;5034817;28;20353;-63
2022/10/07 10:43:23;;;;;;;3.80;3.42;;;26.60;55.70;;;;;;5032652;28;20025;-64
2022/10/07 10:46:07;;;;;;;3.20;3.00;;;26.60;54.00;;;;;;5029967;28;20029;-65
2022/10/07 10:48:53;;;;;;;3.20;3.00;;;26.60;53.40;;;;;;5031583;28;20040;-61
2022/10/07 10:51:43;;;;;;;3.22;3.00;;;26.60;53.30;;;;;;5033239;28;20039;-64
2022/10/07 10:54:23;;;;;;;3.58;3.00;;;26.70;53.80;;;;;;5032256;28;20072;-63
2022/10/07 10:57:08;;;;;;;3.70;3.20;;;26.90;53.10;;;;;;5033773;28;20036;-61
2022/10/07 10:59:54;;;;;;;2.80;2.60;;;27.00;53.90;;;;;;5016812;28;20135;-63
2022/10/07 11:02:28;;;;;;;3.42;3.13;;;27.30;55.60;;;;;;5012942;28;20125;-63
2022/10/07 11:05:17;;;;;;;4.55;3.00;;;27.70;56.30;;;;;;5026540;28;20090;-62
2022/10/07 11:07:49;;;;;;;3.22;3.03;;;28.10;56.80;;;;;;5031554;28;20303;-61
2022/10/07 11:10:33;;;;;;;3.45;3.20;;;28.20;57.00;;;;;;5031527;28;20032;-61
2022/10/07 11:13:33;;;;;;;3.80;3.50;;;28.00;51.90;;;;;;5024481;28;20083;-63
2022/10/07 11:16:13;;;;;;;3.75;3.45;;;27.90;51.40;;;;;;5034820;28;20032;-63
2022/10/07 11:19:00;;;;;;;4.35;3.17;;;28.00;52.80;;;;;;5029623;28;20026;-62
2022/10/07 11:21:33;;;;;;;3.08;2.88;;;27.80;53.20;;;;;;5004843;28;20056;-63
2022/10/07 11:26:56;;;;;;;3.25;3.00;;;28.20;53.10;;;;;;5483768;23;19961;-65
2022/10/07 11:29:55;;;;;;;3.08;2.88;;;28.40;53.90;;;;;;4944589;29;20039;-67
2022/10/07 11:32:53;;;;;;;4.05;3.15;;;28.50;51.90;;;;;;4948862;28;20552;-65
2022/10/07 11:35:22;;;;;;;3.15;2.95;;;28.60;52.80;;;;;;4892769;29;20063;-62
2022/10/07 11:38:19;;;;;;;2.92;2.72;;;28.50;52.60;;;;;;4937463;29;20095;-64
2022/10/07 11:40:55;;;;;;;3.15;2.95;;;28.50;53.50;;;;;;4934554;29;20046;-64
2022/10/07 11:43:26;;;;;;;3.45;2.95;;;28.30;53.90;;;;;;4948086;29;20035;-65
2022/10/07 11:45:59;;;;;;;4.10;3.17;;;28.20;52.00;;;;;;4940684;29;20042;-63
2022/10/07 11:48:29;;;;;;;;;;;27.80;53.00;;;;;;4937875;29;20070;-65
2022/10/07 11:51:02;;;;;;;3.80;3.50;;;27.60;52.10;;;;;;4941510;29;19910;-66
2022/10/07 11:53:33;;;;;;;3.22;2.92;;;27.50;53.20;;;;;;4952726;29;20350;-64
2022/10/07 11:56:05;;;;;;;2.70;2.50;;;27.60;54.00;;;;;;4952350;29;20041;-65
2022/10/07 11:58:33;;;;;;;3.15;2.88;;;27.70;53.70;;;;;;4954118;29;20038;-64
2022/10/07 12:01:37;;;;;;;3.20;2.97;;;27.70;53.70;;;;;;4946417;29;20043;-67
2022/10/07 12:04:32;;;;;;;3.20;2.97;;;27.60;51.30;;;;;;4938700;29;20040;-64
2022/10/07 12:07:36;;;;;;;4.13;2.78;;;27.20;51.70;;;;;;4940135;29;20024;-65
2022/10/07 12:10:04;;;;;;;;;;;27.10;54.40;;;;;;4962340;28;20101;-64
2022/10/07 12:12:45;;;;;;;2.72;2.53;;;27.10;54.10;;;;;;4970432;28;20507;-64
2022/10/07 12:15:35;;;;;;;2.67;2.45;;;27.10;53.20;;;;;;4953794;29;20023;-65
2022/10/07 12:18:03;;;;;;;3.38;2.60;;;27.10;52.40;;;;;;4950162;29;20042;-66
2022/10/07 12:20:33;;;;;;;2.50;2.30;;;26.90;53.40;;;;;;4951928;29;20026;-67
2022/10/07 12:23:17;;;;;;;2.80;2.58;;;26.90;55.30;;;;;;4950725;29;20078;-66
2022/10/07 12:25:57;;;;;;;4.07;2.88;;;27.00;53.40;;;;;;4950644;29;20023;-65
2022/10/07 12:28:44;;;;;;;2.47;2.28;;;27.10;53.10;;;;;;4923551;29;20027;-64
2022/10/07 12:31:19;;;;;;;2.60;2.40;;;27.20;52.70;;;;;;4921889;29;20410;-64
2022/10/07 12:33:45;;;;;;;2.67;2.40;;;27.10;52.30;;;;;;4917161;29;20498;-65
2022/10/07 12:36:20;;;;;;;2.45;2.25;;;27.10;53.20;;;;;;4917453;29;20055;-63
2022/10/07 12:39:10;;;;;;;2.90;2.70;;;27.00;54.10;;;;;;4922466;28;20043;-65
2022/10/07 12:41:37;;;;;;;2.60;2.40;;;27.10;54.70;;;;;;4917391;29;20410;-69
2022/10/07 12:44:18;;;;;;;3.33;2.90;;;26.90;53.10;;;;;;4937053;29;20024;-62
2022/10/07 12:47:25;;;;;;;3.10;2.90;;;26.70;53.20;;;;;;4936488;29;20024;-67
2022/10/07 12:49:59;;;;;;;4.07;3.15;;;26.50;54.00;;;;;;4929615;29;20031;-67
2022/10/07 12:52:51;;;;;;;3.35;2.90;;;26.20;52.40;;;;;;4934267;29;20031;-64
2022/10/07 12:55:23;;;;;;;2.67;2.50;;;26.20;53.70;;;;;;4935557;29;20024;-67
2022/10/07 12:59:45;;;;;;;2.60;2.40;;;26.40;53.30;;;;;;4936261;29;20047;-67
2022/10/07 13:01:08;;;;;;;5.25;3.33;;;26.30;54.40;;;;;;4935172;29;20538;-64
2022/10/07 13:04:03;;;;;;;2.78;2.50;;;26.20;52.50;;;;;;4934621;29;20382;-66
2022/10/07 13:06:55;;;;;;;2.97;2.67;;;26.10;53.60;;;;;;4926863;29;20047;-63
2022/10/07 13:09:50;;;;;;;2.87;2.60;;;26.30;53.80;;;;;;4935071;29;20028;-67
2022/10/07 13:12:23;;;;;;;3.42;2.40;;;26.30;54.40;;;;;;4935301;29;20023;-66
2022/10/07 13:15:17;;;;;;;2.83;2.58;;;26.30;54.80;;;;;;4936463;29;20106;-67
2022/10/07 13:18:03;;;;;;;2.72;2.50;;;26.20;55.70;;;;;;4936593;29;20030;-64
2022/10/07 13:20:36;;;;;;;2.47;2.28;;;26.10;53.80;;;;;;4936253;29;20020;-68
2022/10/07 13:23:11;;;;;;;2.42;2.20;;;26.10;53.90;;;;;;4936350;29;20023;-64
2022/10/07 13:25:52;;;;;;;2.80;2.50;;;26.10;55.00;;;;;;4935993;29;20128;-67
2022/10/07 13:28:21;;;;;;;2.80;2.60;;;26.10;54.50;;;;;;4935831;29;20413;-63
2022/10/07 13:30:48;;;;;;;2.13;2.03;;;25.90;55.00;;;;;;4935095;29;20046;-65